Current | Forecast
Updated: 10:30 PM WET on January 20, 2018
Observed at Porto, Portugal
Temperature 11°C
Humidity 100%
Dew Point 11°C
Wind South at 9 km/h
Pressure 1032 hPa (Steady)
Conditions Overcast
Visibility 4.0 kilometers
UV 0 out of 16
Clouds Mostly Cloudy (BKN) : 60 m
Overcast (OVC) : 243 m
Yesterday's Maximum 15°C
Yesterday's Minimum 5°C approx.
Yesterday's Heating Degree Days 15 approx.
Sunrise7:56 AM WET
Sunset5:33 PM WET
Moon Rise9:52 AM WET
Moon Set8:58 PM WET
Moon PhaseMoon Phase
Waxing Crescent
Raw METARMETAR LPPR 202230Z 18005KT 4000 BR BKN002 OVC008 11/11 Q1032


Monday
. High: 62° F.
Tuesday
. High: 62° F.
Wednesday
. High: 57° F.
Thursday
. High: 64° F.
Friday
. High: 68° F.
Saturday
. High: 64° F.
Sunday
. High: 68° F.
Monday
. High: 77° F.

Units: English | Metric

Find the Weather for any City, State or Zipcode, or Country:

U.S. State List | Severe Weather | Tropical Storms | Ski Conditions
United States | Canada | Central America | South America | Asia | Europe | Australia | Africa | Islands

Weather Underground

© Copyright 2018
The Weather Company, LLC